createdAt,value
2018-08-04T00:01:14.245Z,96.00
2018-08-04T00:03:42.712Z,95.40
2018-08-04T00:06:11.148Z,95.30
2018-08-04T00:08:39.576Z,95.10
2018-08-04T00:11:08.060Z,95.10
2018-08-04T00:13:36.492Z,95.10
2018-08-04T00:16:05.104Z,94.90
2018-08-04T00:18:33.549Z,94.80
2018-08-04T00:21:02.009Z,94.80
2018-08-04T00:23:30.432Z,94.50
2018-08-04T00:25:58.836Z,94.50
2018-08-04T00:28:27.253Z,94.60
2018-08-04T00:30:55.693Z,94.70
2018-08-04T00:33:24.149Z,95.00
2018-08-04T00:35:52.557Z,95.40
2018-08-04T00:38:20.975Z,95.70
2018-08-04T00:40:49.456Z,96.00
2018-08-04T00:43:17.892Z,96.20
2018-08-04T00:45:46.316Z,96.40
2018-08-04T00:48:14.716Z,96.70
2018-08-04T00:50:43.163Z,96.90
2018-08-04T00:53:11.634Z,97.20
2018-08-04T00:55:40.073Z,97.60
2018-08-04T00:58:08.540Z,97.70
2018-08-04T01:00:36.982Z,97.80
2018-08-04T01:03:05.445Z,98.00
2018-08-04T01:05:33.876Z,98.10
2018-08-04T01:08:02.305Z,98.20
2018-08-04T01:10:30.728Z,98.40
2018-08-04T01:12:59.172Z,98.50
2018-08-04T01:15:27.608Z,98.80
2018-08-04T01:17:56.024Z,99.00
2018-08-04T01:20:24.479Z,99.30
2018-08-04T01:22:52.900Z,99.50
2018-08-04T01:25:21.337Z,99.70
2018-08-04T01:27:49.768Z,99.90
2018-08-04T01:30:18.208Z,99.90
2018-08-04T01:32:46.652Z,99.90
2018-08-04T01:35:15.124Z,99.90
2018-08-04T01:37:43.556Z,99.90
2018-08-04T01:40:12.021Z,99.90
2018-08-04T01:42:40.468Z,99.90
2018-08-04T01:45:08.870Z,99.90
2018-08-04T01:47:37.308Z,99.90
2018-08-04T01:50:06.268Z,99.90
2018-08-04T01:52:34.672Z,99.90
2018-08-04T01:55:03.100Z,99.90
2018-08-04T01:57:31.552Z,99.90
2018-08-04T01:59:59.995Z,99.90
2018-08-04T02:02:28.423Z,99.90
2018-08-04T02:04:56.927Z,99.90
2018-08-04T02:07:25.464Z,99.90
2018-08-04T02:09:53.940Z,99.90
2018-08-04T02:12:22.471Z,99.90
2018-08-04T02:14:50.896Z,99.90
2018-08-04T02:17:19.320Z,99.90
2018-08-04T02:19:47.732Z,99.90
2018-08-04T02:22:16.160Z,99.90
2018-08-04T02:24:44.648Z,99.90
2018-08-04T02:27:13.084Z,99.90
2018-08-04T02:29:41.508Z,99.90
2018-08-04T02:32:09.928Z,99.90
2018-08-04T02:34:38.348Z,99.90
2018-08-04T02:37:06.773Z,99.90
2018-08-04T02:39:35.261Z,99.90
2018-08-04T02:42:03.736Z,99.90
2018-08-04T02:44:32.157Z,99.90
2018-08-04T02:47:00.572Z,99.90
2018-08-04T02:49:28.977Z,99.90
2018-08-04T02:51:57.453Z,99.90
2018-08-04T02:54:25.856Z,99.90
2018-08-04T02:56:54.265Z,99.90
2018-08-04T02:59:22.693Z,99.90
2018-08-04T03:01:51.113Z,99.90
2018-08-04T03:04:19.553Z,99.90
2018-08-04T03:06:47.986Z,99.90
2018-08-04T03:09:16.748Z,99.90
2018-08-04T03:11:45.179Z,99.90
2018-08-04T03:14:13.577Z,99.90
2018-08-04T03:16:41.999Z,99.90
2018-08-04T03:19:10.396Z,99.90
2018-08-04T03:21:38.852Z,99.90
2018-08-04T03:24:07.289Z,99.90
2018-08-04T03:26:35.721Z,99.90
2018-08-04T03:29:04.176Z,99.90
2018-08-04T03:31:32.600Z,99.90
2018-08-04T03:34:01.032Z,99.90
2018-08-04T03:36:29.480Z,99.90
2018-08-04T03:38:57.872Z,99.90
2018-08-04T03:41:26.321Z,99.90
2018-08-04T03:43:54.732Z,99.90
2018-08-04T03:46:23.153Z,99.90
2018-08-04T03:48:51.556Z,99.90
2018-08-04T03:51:19.977Z,99.90
2018-08-04T03:53:48.392Z,99.90
2018-08-04T03:56:16.816Z,99.90
2018-08-04T03:58:45.284Z,99.90
2018-08-04T04:01:13.712Z,99.90
2018-08-04T04:03:42.136Z,99.90
2018-08-04T04:06:10.556Z,99.90
2018-08-04T04:08:38.960Z,99.90
2018-08-04T04:11:07.396Z,99.90
2018-08-04T04:13:35.815Z,99.90
2018-08-04T04:16:04.336Z,99.90
2018-08-04T04:18:32.736Z,99.90
2018-08-04T04:21:01.172Z,99.90
2018-08-04T04:23:29.568Z,99.90
2018-08-04T04:25:58.029Z,99.90
2018-08-04T04:28:26.492Z,99.90
2018-08-04T04:30:54.916Z,99.90
2018-08-04T04:33:23.349Z,99.90
2018-08-04T04:35:51.917Z,99.90
2018-08-04T04:38:20.336Z,99.90
2018-08-04T04:40:48.776Z,99.90
2018-08-04T04:43:17.184Z,99.90
2018-08-04T04:45:45.619Z,99.90
2018-08-04T04:48:14.028Z,99.90
2018-08-04T04:50:42.528Z,99.90
2018-08-04T04:53:10.964Z,99.90
2018-08-04T04:55:39.369Z,99.90
2018-08-04T04:58:07.847Z,99.90
2018-08-04T05:00:36.316Z,99.90
2018-08-04T05:03:04.765Z,99.90
2018-08-04T05:05:33.209Z,99.90
2018-08-04T05:08:01.622Z,99.90
2018-08-04T05:10:30.076Z,99.90
2018-08-04T05:12:58.481Z,99.90
2018-08-04T05:15:26.900Z,99.90
2018-08-04T05:17:55.332Z,99.90
2018-08-04T05:20:23.756Z,99.90
2018-08-04T05:22:52.157Z,99.90
2018-08-04T05:25:20.592Z,99.90
2018-08-04T05:27:49.008Z,99.90
2018-08-04T05:30:17.408Z,99.90
2018-08-04T05:32:45.878Z,99.90
2018-08-04T05:35:15.000Z,99.90
2018-08-04T05:37:43.424Z,99.90
2018-08-04T05:40:11.896Z,99.90
2018-08-04T05:42:40.292Z,99.90
2018-08-04T05:45:09.341Z,99.90
2018-08-04T05:47:37.986Z,99.90
2018-08-04T05:50:07.000Z,99.90
2018-08-04T05:52:35.464Z,99.90
2018-08-04T05:55:04.144Z,99.90
2018-08-04T05:57:32.652Z,99.90
2018-08-04T06:00:01.056Z,99.90
2018-08-04T06:02:29.541Z,99.90
2018-08-04T06:04:57.948Z,99.90
2018-08-04T06:07:26.442Z,99.90
2018-08-04T06:09:55.220Z,99.90
2018-08-04T06:12:23.736Z,99.90
2018-08-04T06:14:52.284Z,99.90
2018-08-04T06:17:20.789Z,99.90
2018-08-04T06:19:49.347Z,99.90
2018-08-04T06:22:17.804Z,99.90
2018-08-04T06:24:46.246Z,99.90
2018-08-04T06:27:14.673Z,99.90
2018-08-04T06:29:43.084Z,99.90
2018-08-04T06:32:11.496Z,99.90
2018-08-04T06:34:40.101Z,99.90
2018-08-04T06:37:08.563Z,99.90
2018-08-04T06:39:36.980Z,99.90
2018-08-04T06:42:05.601Z,99.90
2018-08-04T06:44:34.093Z,99.90
2018-08-04T06:47:02.604Z,99.90
2018-08-04T06:49:31.028Z,99.90
2018-08-04T06:51:59.468Z,99.90
2018-08-04T06:54:27.964Z,99.90
2018-08-04T06:56:56.397Z,99.90
2018-08-04T06:59:24.832Z,99.90
2018-08-04T07:01:53.250Z,99.90
2018-08-04T07:04:21.700Z,99.90
2018-08-04T07:06:50.132Z,99.90
2018-08-04T07:09:19.009Z,99.90
2018-08-04T07:11:47.454Z,99.90
2018-08-04T07:14:15.872Z,99.90
2018-08-04T07:16:44.309Z,99.90
2018-08-04T07:19:12.726Z,99.90
2018-08-04T07:21:41.154Z,99.90
2018-08-04T07:24:09.548Z,99.90
2018-08-04T07:26:37.988Z,99.90
2018-08-04T07:29:06.521Z,99.90
2018-08-04T07:31:35.108Z,99.90
2018-08-04T07:34:03.614Z,99.90
2018-08-04T07:36:32.021Z,99.90
2018-08-04T07:39:00.452Z,99.90
2018-08-04T07:41:28.910Z,99.90
2018-08-04T07:43:57.312Z,99.90
2018-08-04T07:46:25.732Z,99.90
2018-08-04T07:48:54.461Z,99.90
2018-08-04T07:51:22.900Z,99.90
2018-08-04T07:53:51.313Z,99.90
2018-08-04T07:56:19.865Z,99.90
2018-08-04T07:58:48.268Z,99.90
2018-08-04T08:01:16.700Z,99.90
2018-08-04T08:03:45.133Z,99.90
2018-08-04T08:06:13.578Z,99.90
2018-08-04T08:08:41.995Z,99.90
2018-08-04T08:11:10.508Z,99.90
2018-08-04T08:13:38.881Z,99.90
2018-08-04T08:16:07.321Z,99.90
2018-08-04T08:18:35.785Z,99.90
2018-08-04T08:21:04.252Z,99.90
2018-08-04T08:23:32.668Z,99.90
2018-08-04T08:26:10.436Z,99.90
2018-08-04T08:28:39.659Z,99.90
2018-08-04T08:31:08.210Z,99.90
2018-08-04T08:33:37.219Z,99.90
2018-08-04T08:36:05.985Z,99.90
2018-08-04T08:38:34.419Z,99.90
2018-08-04T08:41:02.943Z,99.90
2018-08-04T08:43:31.392Z,99.90
2018-08-04T08:45:59.970Z,99.90
2018-08-04T08:48:28.400Z,99.90
2018-08-04T08:50:56.860Z,99.90
2018-08-04T08:53:25.686Z,99.90
2018-08-04T08:55:54.357Z,99.30
2018-08-04T08:58:22.849Z,99.80
2018-08-04T09:00:51.340Z,99.40
2018-08-04T09:03:19.836Z,99.40
2018-08-04T09:05:48.297Z,99.20
2018-08-04T09:08:16.833Z,99.30
2018-08-04T09:10:45.326Z,99.90
2018-08-04T09:13:13.858Z,99.90
2018-08-04T09:15:42.383Z,99.90
2018-08-04T09:18:10.891Z,98.60
2018-08-04T09:20:39.388Z,99.20
2018-08-04T09:23:07.971Z,98.60
2018-08-04T09:25:36.470Z,98.90
2018-08-04T09:28:05.033Z,99.30
2018-08-04T09:30:33.602Z,98.30
2018-08-04T09:33:02.144Z,97.90
2018-08-04T09:35:30.645Z,97.70
2018-08-04T09:37:59.272Z,97.40
2018-08-04T09:40:27.859Z,96.40
2018-08-04T09:42:57.384Z,96.80
2018-08-04T09:45:25.904Z,97.10
2018-08-04T09:47:54.408Z,96.80
2018-08-04T09:50:22.965Z,96.40
2018-08-04T09:52:51.528Z,96.20
2018-08-04T09:55:20.168Z,96.10
2018-08-04T09:57:48.690Z,96.00
2018-08-04T10:00:22.821Z,95.20
2018-08-04T10:02:51.309Z,94.90
2018-08-04T10:05:19.793Z,95.00
2018-08-04T10:07:48.457Z,95.50
2018-08-04T10:10:16.917Z,95.70
2018-08-04T10:12:45.551Z,95.40
2018-08-04T10:17:42.192Z,96.20
2018-08-04T10:20:11.704Z,95.90
2018-08-04T10:22:40.253Z,95.90
2018-08-04T10:25:09.116Z,95.90
2018-08-04T10:27:37.674Z,95.90
2018-08-04T10:30:08.426Z,96.00
2018-08-04T10:32:36.998Z,95.70
2018-08-04T10:35:05.994Z,95.10
2018-08-04T10:37:34.508Z,94.90
2018-08-04T10:40:03.126Z,95.00
2018-08-04T10:42:31.623Z,94.80
2018-08-04T10:45:00.129Z,94.60
2018-08-04T10:47:28.614Z,94.40
2018-08-04T10:49:57.133Z,93.20
2018-08-04T10:52:25.661Z,93.30
2018-08-04T10:54:54.194Z,93.80
2018-08-04T10:57:22.719Z,93.20
2018-08-04T10:59:51.186Z,92.90
2018-08-04T11:02:27.333Z,92.10
2018-08-04T11:04:55.820Z,92.20
2018-08-04T11:07:24.355Z,91.80
2018-08-04T11:09:53.105Z,90.90
2018-08-04T11:12:21.603Z,90.90
2018-08-04T11:14:50.139Z,91.60
2018-08-04T11:17:18.761Z,91.70
2018-08-04T11:19:47.311Z,91.60
2018-08-04T11:22:15.821Z,91.30
2018-08-04T11:24:44.347Z,91.50
2018-08-04T11:27:12.851Z,90.80
2018-08-04T11:29:41.345Z,90.90
2018-08-04T11:32:09.884Z,90.70
2018-08-04T11:34:38.476Z,90.10
2018-08-04T11:37:07.018Z,89.60
2018-08-04T11:39:35.538Z,89.70
2018-08-04T11:42:04.143Z,89.60
2018-08-04T11:44:32.647Z,90.00
2018-08-04T11:47:01.168Z,88.70
2018-08-04T11:49:29.620Z,88.60
2018-08-04T11:51:58.181Z,89.20
2018-08-04T11:54:26.678Z,88.20
2018-08-04T11:56:55.185Z,85.40
2018-08-04T11:59:23.727Z,83.90
2018-08-04T12:01:52.605Z,83.00
2018-08-04T12:04:21.100Z,82.80
2018-08-04T12:06:49.649Z,82.20
2018-08-04T12:09:18.158Z,83.00
2018-08-04T12:11:46.756Z,83.00
2018-08-04T12:14:15.827Z,80.60
2018-08-04T12:16:44.332Z,81.30
2018-08-04T12:19:12.808Z,82.30
2018-08-04T12:21:41.438Z,81.80
2018-08-04T12:24:09.969Z,81.60
2018-08-04T12:26:38.522Z,80.70
2018-08-04T12:29:07.002Z,78.70
2018-08-04T12:31:35.569Z,80.00
2018-08-04T12:34:04.060Z,79.40
2018-08-04T12:36:32.610Z,79.10
2018-08-04T12:39:01.128Z,80.80
2018-08-04T12:41:29.625Z,81.10
2018-08-04T12:43:58.155Z,80.10
2018-08-04T12:46:26.639Z,80.20
2018-08-04T12:48:55.129Z,78.70
2018-08-04T12:51:23.609Z,80.40
2018-08-04T12:53:53.197Z,79.80
2018-08-04T12:56:21.720Z,78.90
2018-08-04T12:58:50.220Z,79.40
2018-08-04T13:01:18.732Z,79.70
2018-08-04T13:03:47.245Z,77.00
2018-08-04T13:06:16.041Z,78.10
2018-08-04T13:08:44.610Z,78.30
2018-08-04T13:11:13.146Z,78.00
2018-08-04T13:13:42.661Z,76.60
2018-08-04T13:16:11.112Z,74.40
2018-08-04T13:18:39.593Z,73.60
2018-08-04T13:21:08.066Z,74.60
2018-08-04T13:23:36.619Z,75.60
2018-08-04T13:26:05.146Z,75.50
2018-08-04T13:28:33.664Z,74.30
2018-08-04T13:31:02.212Z,74.40
2018-08-04T13:33:30.768Z,73.50
2018-08-04T13:35:59.354Z,73.60
2018-08-04T13:38:27.857Z,72.90
2018-08-04T13:40:57.070Z,71.80
2018-08-04T13:43:25.585Z,71.70
2018-08-04T13:45:55.033Z,71.90
2018-08-04T13:48:23.557Z,71.50
2018-08-04T13:50:52.148Z,72.60
2018-08-04T13:53:20.921Z,73.40
2018-08-04T13:55:49.397Z,74.70
2018-08-04T13:58:17.880Z,74.10
2018-08-04T14:00:47.444Z,74.30
2018-08-04T14:03:15.957Z,73.00
2018-08-04T14:05:44.557Z,73.00
2018-08-04T14:08:13.050Z,71.90
2018-08-04T14:10:41.570Z,71.30
2018-08-04T14:13:10.041Z,69.40
2018-08-04T14:15:38.556Z,69.90
2018-08-04T14:18:07.080Z,69.50
2018-08-04T14:20:35.594Z,67.80
2018-08-04T14:23:04.104Z,70.80
2018-08-04T14:25:32.580Z,72.90
2018-08-04T14:28:01.134Z,70.70
2018-08-04T14:30:29.572Z,72.20
2018-08-04T14:32:58.082Z,72.10
2018-08-04T14:35:26.561Z,72.00
2018-08-04T14:37:55.017Z,72.00
2018-08-04T14:40:28.296Z,72.50
2018-08-04T14:42:56.824Z,73.20
2018-08-04T14:45:25.545Z,72.80
2018-08-04T14:47:56.697Z,73.30
2018-08-04T14:50:25.400Z,74.70
2018-08-04T14:52:54.909Z,75.30
2018-08-04T14:55:23.428Z,73.10
2018-08-04T14:57:51.905Z,73.70
2018-08-04T15:00:20.426Z,73.00
2018-08-04T15:02:48.864Z,72.80
2018-08-04T15:05:17.412Z,73.70
2018-08-04T15:07:45.938Z,74.50
2018-08-04T15:10:14.420Z,74.20
2018-08-04T15:12:42.871Z,73.90
2018-08-04T15:15:11.329Z,74.30
2018-08-04T15:17:40.093Z,74.50
2018-08-04T15:20:08.986Z,75.40
2018-08-04T15:22:37.521Z,75.70
2018-08-04T15:25:06.222Z,75.30
2018-08-04T15:27:35.067Z,74.80
2018-08-04T15:30:03.857Z,75.70
2018-08-04T15:32:32.345Z,76.10
2018-08-04T15:35:01.226Z,76.90
2018-08-04T15:37:29.720Z,77.20
2018-08-04T15:39:58.258Z,77.80
2018-08-04T15:42:26.768Z,77.40
2018-08-04T15:44:55.252Z,77.60
2018-08-04T15:47:23.908Z,77.60
2018-08-04T15:49:52.357Z,76.70
2018-08-04T15:52:20.880Z,76.80
2018-08-04T15:54:49.332Z,76.90
2018-08-04T15:57:17.844Z,76.40
2018-08-04T15:59:46.288Z,76.80
2018-08-04T16:02:14.772Z,75.80
2018-08-04T16:04:43.233Z,77.00
2018-08-04T16:07:11.711Z,77.90
2018-08-04T16:09:40.176Z,78.00
2018-08-04T16:12:08.753Z,78.00
2018-08-04T16:14:38.449Z,77.50
2018-08-04T16:17:07.224Z,78.70
2018-08-04T16:19:35.721Z,78.40
2018-08-04T16:22:05.588Z,78.50
2018-08-04T16:24:34.045Z,78.60
2018-08-04T16:27:02.508Z,80.00
2018-08-04T16:29:30.992Z,79.40
2018-08-04T16:31:59.447Z,78.90
2018-08-04T16:34:27.925Z,79.30
2018-08-04T16:36:56.408Z,79.40
2018-08-04T16:39:25.173Z,78.90
2018-08-04T16:41:53.738Z,78.90
2018-08-04T16:44:22.284Z,79.50
2018-08-04T16:46:50.824Z,79.70
2018-08-04T16:49:19.318Z,80.00
2018-08-04T16:51:47.817Z,80.60
2018-08-04T16:54:16.381Z,80.20
2018-08-04T16:56:44.860Z,80.60
2018-08-04T16:59:13.618Z,79.90
2018-08-04T17:01:42.149Z,79.30
2018-08-04T17:04:10.708Z,78.20
2018-08-04T17:06:39.306Z,78.60
2018-08-04T17:09:10.557Z,78.00
2018-08-04T17:11:39.046Z,78.30
2018-08-04T17:14:07.973Z,79.10
2018-08-04T17:16:36.529Z,81.40
2018-08-04T17:19:05.060Z,82.30
2018-08-04T17:21:33.602Z,82.80
2018-08-04T17:24:02.136Z,82.60
2018-08-04T17:26:30.700Z,82.90
2018-08-04T17:28:59.585Z,83.40
2018-08-04T17:31:28.061Z,84.30
2018-08-04T17:33:56.512Z,84.80
2018-08-04T17:36:24.972Z,85.90
2018-08-04T17:38:53.455Z,86.50
2018-08-04T17:41:22.977Z,87.10
2018-08-04T17:43:51.689Z,87.70
2018-08-04T17:46:20.221Z,90.30
2018-08-04T17:48:48.732Z,92.50
2018-08-04T17:51:17.225Z,93.70
2018-08-04T17:53:45.720Z,94.60
2018-08-04T17:56:14.240Z,95.60
2018-08-04T17:58:43.010Z,96.30
2018-08-04T18:01:11.797Z,96.70
2018-08-04T18:03:40.500Z,97.00
2018-08-04T18:06:09.009Z,97.90
2018-08-04T18:08:37.485Z,98.30
2018-08-04T18:11:06.221Z,98.70
2018-08-04T18:13:34.698Z,99.10
2018-08-04T18:16:03.286Z,99.70
2018-08-04T18:18:31.900Z,99.90
2018-08-04T18:21:00.549Z,99.90
2018-08-04T18:23:29.060Z,99.90
2018-08-04T18:25:57.621Z,99.90
2018-08-04T18:28:30.514Z,99.90
2018-08-04T18:30:59.117Z,99.90
2018-08-04T18:33:27.559Z,99.90
2018-08-04T18:35:56.129Z,99.90
2018-08-04T18:38:24.908Z,99.90
2018-08-04T18:40:53.505Z,99.90
2018-08-04T18:43:22.057Z,99.90
2018-08-04T18:45:50.632Z,99.90
2018-08-04T18:48:19.153Z,99.90
2018-08-04T18:50:47.672Z,99.90
2018-08-04T18:53:16.218Z,99.90
2018-08-04T18:55:45.353Z,99.90
2018-08-04T18:58:13.795Z,99.90
2018-08-04T19:00:42.344Z,99.90
2018-08-04T19:03:10.915Z,99.90
2018-08-04T19:05:39.393Z,99.90
2018-08-04T19:08:07.923Z,99.90
2018-08-04T19:10:36.417Z,99.90
2018-08-04T19:13:05.169Z,99.90
2018-08-04T19:15:33.664Z,99.90
2018-08-04T19:18:02.195Z,99.90
2018-08-04T19:20:30.719Z,99.90
2018-08-04T19:22:59.614Z,99.90
2018-08-04T19:25:28.095Z,99.90
2018-08-04T19:27:56.767Z,99.90
2018-08-04T19:30:25.185Z,99.90
2018-08-04T19:32:57.750Z,99.90
2018-08-04T19:35:26.253Z,99.90
2018-08-04T19:37:54.980Z,99.90
2018-08-04T19:40:23.461Z,99.90
2018-08-04T19:42:51.981Z,99.90
2018-08-04T19:45:20.432Z,99.90
2018-08-04T19:47:48.889Z,99.90
2018-08-04T19:50:17.377Z,99.90
2018-08-04T19:52:46.385Z,99.90
2018-08-04T19:55:15.903Z,99.90
2018-08-04T19:57:45.513Z,99.90
2018-08-04T20:00:16.284Z,99.90
2018-08-04T20:02:45.823Z,99.90
2018-08-04T20:05:15.419Z,99.90
2018-08-04T20:07:43.925Z,99.90
2018-08-04T20:10:12.909Z,99.90
2018-08-04T20:12:41.380Z,99.90
2018-08-04T20:15:09.868Z,99.90
2018-08-04T20:17:38.390Z,99.90
2018-08-04T20:20:06.896Z,99.90
2018-08-04T20:22:35.448Z,99.90
2018-08-04T20:25:04.163Z,99.90
2018-08-04T20:27:32.636Z,99.90
2018-08-04T20:30:01.049Z,99.90
2018-08-04T20:32:29.552Z,99.90
2018-08-04T20:34:58.078Z,99.90
2018-08-04T20:37:26.444Z,99.90
2018-08-04T20:39:55.104Z,99.90
2018-08-04T20:42:23.620Z,99.90
2018-08-04T20:44:52.101Z,99.90
2018-08-04T20:47:20.521Z,99.90
2018-08-04T20:49:49.012Z,99.90
2018-08-04T20:52:17.471Z,99.90
2018-08-04T20:54:46.008Z,99.90
2018-08-04T20:57:14.428Z,99.90
2018-08-04T20:59:42.920Z,99.90
2018-08-04T21:02:11.428Z,99.90
2018-08-04T21:04:39.880Z,99.90
2018-08-04T21:07:08.375Z,99.90
2018-08-04T21:09:36.835Z,99.90
2018-08-04T21:12:05.345Z,99.90
2018-08-04T21:14:33.877Z,99.90
2018-08-04T21:17:02.347Z,99.90
2018-08-04T21:19:30.832Z,99.90
2018-08-04T21:21:59.290Z,99.90
2018-08-04T21:24:27.751Z,99.90
2018-08-04T21:26:56.548Z,99.90
2018-08-04T21:29:25.216Z,99.90
2018-08-04T21:31:53.720Z,99.90
2018-08-04T21:34:22.184Z,99.90
2018-08-04T21:36:50.668Z,99.90
2018-08-04T21:39:19.996Z,99.90
2018-08-04T21:41:48.804Z,99.90
2018-08-04T21:44:17.395Z,99.90
2018-08-04T21:46:47.750Z,99.90
2018-08-04T21:49:16.415Z,99.90
2018-08-04T21:51:46.144Z,99.90
2018-08-04T21:54:19.915Z,99.90
2018-08-04T21:56:44.436Z,99.90
2018-08-04T21:59:13.000Z,99.90
2018-08-04T22:01:57.186Z,99.90
2018-08-04T22:04:26.092Z,99.90
2018-08-04T22:08:03.558Z,99.90
2018-08-04T22:10:31.972Z,99.90
2018-08-04T22:13:00.460Z,99.90
2018-08-04T22:15:28.873Z,99.90
2018-08-04T22:17:57.364Z,99.90
2018-08-04T22:20:26.368Z,99.90
2018-08-04T22:22:54.815Z,99.90
2018-08-04T22:25:25.382Z,99.90
2018-08-04T22:27:53.968Z,99.90
2018-08-04T22:30:22.973Z,99.90
2018-08-04T22:32:51.708Z,99.90
2018-08-04T22:35:20.368Z,99.90
2018-08-04T22:37:48.792Z,99.90
2018-08-04T22:40:18.128Z,99.90
2018-08-04T22:42:46.616Z,99.90
2018-08-04T22:46:11.925Z,99.90
2018-08-04T22:48:40.848Z,99.90
2018-08-04T22:51:09.274Z,99.90
2018-08-04T22:53:37.821Z,99.90
2018-08-04T22:56:06.293Z,99.90
2018-08-04T22:58:34.755Z,99.90
2018-08-04T23:01:03.260Z,99.90
2018-08-04T23:03:31.688Z,99.90
2018-08-04T23:06:00.101Z,99.90
2018-08-04T23:08:28.536Z,99.90
2018-08-04T23:10:56.976Z,99.90
2018-08-04T23:13:25.397Z,99.90
2018-08-04T23:15:53.824Z,99.90
2018-08-04T23:18:22.300Z,99.90
2018-08-04T23:20:50.720Z,99.90
2018-08-04T23:23:19.156Z,99.90
2018-08-04T23:25:47.588Z,99.90
2018-08-04T23:28:16.039Z,99.90
2018-08-04T23:30:44.449Z,99.90
2018-08-04T23:33:13.056Z,99.90
2018-08-04T23:35:41.629Z,99.90
2018-08-04T23:38:10.073Z,99.90
2018-08-04T23:40:38.501Z,99.90
2018-08-04T23:43:07.063Z,99.90
2018-08-04T23:45:35.544Z,99.90
2018-08-04T23:48:03.960Z,99.90
2018-08-04T23:50:32.428Z,99.90
2018-08-04T23:53:01.721Z,99.90
2018-08-04T23:55:30.173Z,99.90
2018-08-04T23:57:58.588Z,99.90
